createdAt,value
2019-05-26T00:02:19.882Z,16.70
2019-05-26T00:04:49.970Z,16.70
2019-05-26T00:07:30.074Z,16.60
2019-05-26T00:09:51.710Z,16.60
2019-05-26T00:12:21.852Z,16.60
2019-05-26T00:14:51.782Z,16.50
2019-05-26T00:17:21.733Z,16.50
2019-05-26T00:19:51.723Z,16.60
2019-05-26T00:22:21.861Z,16.60
2019-05-26T00:24:51.922Z,16.60
2019-05-26T00:27:22.083Z,16.50
2019-05-26T00:29:52.061Z,16.50
2019-05-26T00:32:22.109Z,16.50
2019-05-26T00:34:52.164Z,16.50
2019-05-26T00:37:22.318Z,16.50
2019-05-26T00:39:52.374Z,16.60
2019-05-26T00:42:22.304Z,16.60
2019-05-26T00:44:52.373Z,16.60
2019-05-26T00:47:22.530Z,16.70
2019-05-26T00:49:52.524Z,16.60
2019-05-26T00:52:22.847Z,16.60
2019-05-26T00:54:53.036Z,16.60
2019-05-26T00:57:23.188Z,16.70
2019-05-26T00:59:53.283Z,16.70
2019-05-26T01:02:23.332Z,16.70
2019-05-26T01:04:53.376Z,16.60
2019-05-26T01:07:23.436Z,16.60
2019-05-26T01:09:53.763Z,16.60
2019-05-26T01:12:23.858Z,16.60
2019-05-26T01:14:53.853Z,16.50
2019-05-26T01:17:23.911Z,16.60
2019-05-26T01:19:53.923Z,16.50
2019-05-26T01:22:23.847Z,16.50
2019-05-26T01:24:53.907Z,16.50
2019-05-26T01:27:23.969Z,16.50
2019-05-26T01:29:53.991Z,16.50
2019-05-26T01:32:24.100Z,16.50
2019-05-26T01:34:54.185Z,16.50
2019-05-26T01:37:24.276Z,16.50
2019-05-26T01:39:54.798Z,16.50
2019-05-26T01:42:24.996Z,16.50
2019-05-26T01:44:54.906Z,16.40
2019-05-26T01:47:24.823Z,16.40
2019-05-26T01:49:54.730Z,16.40
2019-05-26T01:52:24.785Z,16.40
2019-05-26T01:54:54.906Z,16.40
2019-05-26T01:57:24.967Z,16.30
2019-05-26T01:59:54.913Z,16.30
2019-05-26T02:02:24.967Z,16.30
2019-05-26T02:04:55.102Z,16.30
2019-05-26T02:07:25.190Z,16.30
2019-05-26T02:09:55.291Z,16.30
2019-05-26T02:12:26.344Z,16.20
2019-05-26T02:14:56.389Z,16.30
2019-05-26T02:17:26.512Z,16.30
2019-05-26T02:19:56.594Z,16.20
2019-05-26T02:22:26.645Z,16.30
2019-05-26T02:24:56.801Z,16.30
2019-05-26T02:27:26.780Z,16.40
2019-05-26T02:29:56.904Z,16.40
2019-05-26T02:32:26.935Z,16.40
2019-05-26T02:34:57.152Z,16.40
2019-05-26T02:37:27.220Z,16.40
2019-05-26T02:39:57.286Z,16.50
2019-05-26T02:42:27.410Z,16.60
2019-05-26T02:44:59.462Z,16.60
2019-05-26T02:47:28.976Z,16.60
2019-05-26T02:49:58.938Z,16.50
2019-05-26T02:52:28.869Z,16.50
2019-05-26T02:54:58.928Z,16.60
2019-05-26T02:57:28.935Z,16.60
2019-05-26T02:59:59.018Z,16.50
2019-05-26T03:02:29.335Z,16.50
2019-05-26T03:04:59.435Z,16.50
2019-05-26T03:07:30.157Z,16.50
2019-05-26T03:10:02.978Z,16.50
2019-05-26T03:12:34.830Z,16.50
2019-05-26T03:15:07.703Z,16.40
2019-05-26T03:17:40.012Z,16.40
2019-05-26T03:20:10.413Z,16.30
2019-05-26T03:22:42.278Z,16.30
2019-05-26T03:25:14.066Z,16.30
2019-05-26T03:27:44.061Z,16.30
2019-05-26T03:30:15.509Z,16.20
2019-05-26T03:32:45.646Z,16.20
2019-05-26T03:35:15.802Z,16.20
2019-05-26T03:37:45.845Z,16.20
2019-05-26T03:40:16.471Z,16.20
2019-05-26T03:42:46.530Z,16.20
2019-05-26T03:45:35.716Z,16.30
2019-05-26T03:48:05.704Z,16.20
2019-05-26T03:50:35.673Z,16.30
2019-05-26T03:53:05.615Z,16.40
2019-05-26T03:55:35.575Z,16.40
2019-05-26T03:58:05.633Z,16.50
2019-05-26T04:00:36.762Z,16.60
2019-05-26T04:03:06.887Z,16.60
2019-05-26T04:05:36.835Z,16.60
2019-05-26T04:08:06.908Z,16.60
2019-05-26T04:10:36.866Z,16.60
2019-05-26T04:13:06.831Z,16.70
2019-05-26T04:15:36.753Z,16.70
2019-05-26T04:18:06.916Z,16.70
2019-05-26T04:20:36.886Z,16.70
2019-05-26T04:23:06.966Z,16.70
2019-05-26T04:25:36.943Z,16.70
2019-05-26T04:28:07.009Z,16.70
2019-05-26T04:30:37.014Z,16.70
2019-05-26T04:33:07.041Z,16.80
2019-05-26T04:35:37.231Z,16.90
2019-05-26T04:38:07.173Z,17.00
2019-05-26T04:40:37.563Z,17.00
2019-05-26T04:43:07.729Z,17.10
2019-05-26T04:45:37.918Z,17.00
2019-05-26T04:48:08.034Z,17.00
2019-05-26T04:50:38.081Z,17.00
2019-05-26T04:53:08.117Z,17.10
2019-05-26T04:55:38.037Z,17.00
2019-05-26T04:58:08.016Z,17.00
2019-05-26T05:00:38.148Z,17.00
2019-05-26T05:03:08.126Z,17.10
2019-05-26T05:05:38.177Z,17.20
2019-05-26T05:08:08.287Z,17.40
2019-05-26T05:10:42.240Z,17.40
2019-05-26T05:13:10.001Z,17.40
2019-05-26T05:15:40.059Z,17.50
2019-05-26T05:18:10.065Z,17.60
2019-05-26T05:20:40.694Z,17.60
2019-05-26T05:23:10.774Z,17.60
2019-05-26T05:25:40.947Z,17.60
2019-05-26T05:28:11.092Z,17.80
2019-05-26T05:30:41.069Z,17.90
2019-05-26T05:33:11.090Z,18.00
2019-05-26T05:35:41.016Z,18.00
2019-05-26T05:38:11.070Z,18.10
2019-05-26T05:40:45.551Z,18.10
2019-05-26T05:43:12.676Z,18.20
2019-05-26T05:45:42.773Z,18.30
2019-05-26T05:48:12.851Z,18.50
2019-05-26T05:50:42.892Z,18.60
2019-05-26T05:53:12.847Z,18.80
2019-05-26T05:55:42.946Z,18.90
2019-05-26T05:58:13.058Z,19.00
2019-05-26T06:00:43.137Z,19.30
2019-05-26T06:03:13.141Z,19.60
2019-05-26T06:05:43.187Z,19.90
2019-05-26T06:08:13.123Z,20.10
2019-05-26T06:10:44.153Z,20.40
2019-05-26T06:13:14.344Z,20.70
2019-05-26T06:15:44.406Z,20.90
2019-05-26T06:18:14.485Z,21.00
2019-05-26T06:20:44.554Z,21.00
2019-05-26T06:23:14.689Z,21.10
2019-05-26T06:25:44.619Z,21.00
2019-05-26T06:28:14.706Z,21.10
2019-05-26T06:30:44.662Z,21.10
2019-05-26T06:33:14.824Z,21.30
2019-05-26T06:35:44.806Z,21.40
2019-05-26T06:38:14.889Z,21.60
2019-05-26T06:40:44.980Z,21.70
2019-05-26T06:43:15.146Z,21.70
2019-05-26T06:45:45.251Z,21.70
2019-05-26T06:48:15.445Z,21.80
2019-05-26T06:50:45.516Z,21.70
2019-05-26T06:53:15.725Z,21.70
2019-05-26T06:55:45.717Z,21.40
2019-05-26T06:58:15.765Z,21.20
2019-05-26T07:00:45.775Z,21.20
2019-05-26T07:03:16.078Z,21.20
2019-05-26T07:05:46.060Z,21.40
2019-05-26T07:08:16.137Z,21.50
2019-05-26T07:10:46.196Z,21.60
2019-05-26T07:13:16.207Z,21.60
2019-05-26T07:15:46.085Z,21.70
2019-05-26T07:18:16.133Z,22.00
2019-05-26T07:20:46.224Z,22.30
2019-05-26T07:23:16.443Z,22.80
2019-05-26T07:25:46.490Z,23.40
2019-05-26T07:28:16.421Z,24.20
2019-05-26T07:30:46.522Z,24.70
2019-05-26T07:33:16.607Z,24.30
2019-05-26T07:35:49.672Z,24.10
2019-05-26T07:38:18.304Z,24.00
2019-05-26T07:40:48.313Z,24.20
2019-05-26T07:43:18.359Z,24.30
2019-05-26T07:45:48.493Z,24.30
2019-05-26T07:48:18.432Z,24.50
2019-05-26T07:50:48.572Z,24.40
2019-05-26T07:53:18.494Z,24.60
2019-05-26T07:55:48.570Z,24.70
2019-05-26T07:58:18.577Z,24.10
2019-05-26T08:00:49.818Z,23.90
2019-05-26T08:03:19.830Z,23.50
2019-05-26T08:05:49.802Z,23.60
2019-05-26T08:08:19.809Z,23.50
2019-05-26T08:10:49.971Z,23.20
2019-05-26T08:13:20.044Z,22.90
2019-05-26T08:15:50.119Z,22.80
2019-05-26T08:18:20.118Z,22.80
2019-05-26T08:20:50.176Z,22.80
2019-05-26T08:23:20.212Z,22.70
2019-05-26T08:25:50.374Z,22.60
2019-05-26T08:28:20.437Z,22.80
2019-05-26T08:30:50.564Z,23.00
2019-05-26T08:33:20.552Z,23.40
2019-05-26T08:35:50.567Z,23.70
2019-05-26T08:38:20.552Z,24.00
2019-05-26T08:40:50.543Z,24.20
2019-05-26T08:43:20.469Z,24.40
2019-05-26T08:45:50.392Z,24.70
2019-05-26T08:48:20.289Z,25.20
2019-05-26T08:50:50.406Z,25.00
2019-05-26T08:53:20.517Z,25.00
2019-05-26T08:55:50.650Z,25.20
2019-05-26T08:58:20.655Z,25.50
2019-05-26T09:00:50.885Z,25.70
2019-05-26T09:03:20.833Z,26.00
2019-05-26T09:05:51.868Z,26.30
2019-05-26T09:08:21.983Z,26.60
2019-05-26T09:10:51.951Z,26.40
2019-05-26T09:13:21.922Z,26.00
2019-05-26T09:15:51.884Z,25.90
2019-05-26T09:18:21.929Z,26.20
2019-05-26T09:20:52.095Z,25.90
2019-05-26T09:23:22.298Z,25.70
2019-05-26T09:25:52.323Z,25.40
2019-05-26T09:28:22.375Z,25.40
2019-05-26T09:30:52.594Z,25.60
2019-05-26T09:33:22.684Z,25.60
2019-05-26T09:35:52.892Z,25.80
2019-05-26T09:38:22.860Z,26.50
2019-05-26T09:40:53.030Z,27.00
2019-05-26T09:43:23.160Z,27.60
2019-05-26T09:45:53.262Z,28.20
2019-05-26T09:48:23.185Z,29.10
2019-05-26T09:50:53.231Z,29.40
2019-05-26T09:53:23.373Z,28.90
2019-05-26T09:55:53.409Z,28.70
2019-05-26T09:58:23.334Z,28.50
2019-05-26T10:00:53.507Z,27.90
2019-05-26T10:03:23.558Z,27.50
2019-05-26T10:05:53.522Z,27.20
2019-05-26T10:08:23.857Z,27.10
2019-05-26T10:10:55.042Z,27.60
2019-05-26T10:13:31.721Z,27.20
2019-05-26T10:15:56.943Z,26.90
2019-05-26T10:18:27.025Z,26.80
2019-05-26T10:20:57.007Z,26.80
2019-05-26T10:23:27.124Z,27.10
2019-05-26T10:25:57.251Z,27.20
2019-05-26T10:28:27.391Z,26.80
2019-05-26T10:30:57.425Z,26.40
2019-05-26T10:33:27.503Z,26.00
2019-05-26T10:35:57.515Z,25.40
2019-05-26T10:38:27.496Z,25.20
2019-05-26T10:40:57.538Z,25.20
2019-05-26T10:43:27.517Z,25.30
2019-05-26T10:45:57.519Z,25.30
2019-05-26T10:48:27.621Z,25.20
2019-05-26T10:50:59.416Z,25.00
2019-05-26T10:53:29.406Z,24.60
2019-05-26T10:55:59.527Z,24.70
2019-05-26T10:58:29.518Z,24.40
2019-05-26T11:00:59.534Z,24.50
2019-05-26T11:03:29.685Z,24.50
2019-05-26T11:06:00.947Z,24.40
2019-05-26T11:08:30.924Z,24.20
2019-05-26T11:11:00.931Z,24.30
2019-05-26T11:13:30.835Z,24.20
2019-05-26T11:16:00.850Z,24.10
2019-05-26T11:18:30.760Z,24.10
2019-05-26T11:21:00.696Z,24.10
2019-05-26T11:23:30.668Z,24.10
2019-05-26T11:26:00.771Z,24.40
2019-05-26T11:28:30.884Z,24.60
2019-05-26T11:31:00.976Z,24.40
2019-05-26T11:33:30.953Z,24.30
2019-05-26T11:36:01.114Z,24.30
2019-05-26T11:38:33.508Z,24.40
2019-05-26T11:41:02.804Z,24.70
2019-05-26T11:43:32.871Z,24.80
2019-05-26T11:46:02.916Z,24.80
2019-05-26T11:48:33.048Z,25.00
2019-05-26T11:51:03.308Z,25.20
2019-05-26T11:53:33.386Z,25.30
2019-05-26T11:56:03.455Z,25.40
2019-05-26T11:58:33.465Z,25.50
2019-05-26T12:01:03.636Z,25.60
2019-05-26T12:03:33.800Z,25.50
2019-05-26T12:06:04.473Z,25.60
2019-05-26T12:08:34.660Z,25.60
2019-05-26T12:11:04.845Z,25.70
2019-05-26T12:13:36.779Z,25.80
2019-05-26T12:16:06.810Z,25.80
2019-05-26T12:18:36.959Z,25.80
2019-05-26T12:21:07.099Z,25.70
2019-05-26T12:23:37.301Z,25.60
2019-05-26T12:26:07.552Z,25.40
2019-05-26T12:28:42.162Z,25.20
2019-05-26T12:31:12.820Z,25.10
2019-05-26T12:33:48.151Z,25.10
2019-05-26T12:36:18.450Z,25.00
2019-05-26T12:38:54.721Z,25.00
2019-05-26T12:41:24.973Z,24.90
2019-05-26T12:43:56.252Z,25.10
2019-05-26T12:46:26.259Z,25.30
2019-05-26T12:48:56.495Z,25.40
2019-05-26T12:51:26.508Z,25.60
2019-05-26T12:53:56.512Z,25.80
2019-05-26T12:56:27.702Z,25.60
2019-05-26T12:58:58.078Z,25.60
2019-05-26T13:01:28.288Z,25.70
2019-05-26T13:03:58.514Z,25.60
2019-05-26T13:06:28.809Z,25.60
2019-05-26T13:08:58.916Z,25.60
2019-05-26T13:11:28.997Z,25.60
2019-05-26T13:14:04.164Z,25.50
2019-05-26T13:16:35.915Z,25.80
2019-05-26T13:19:10.619Z,25.90
2019-05-26T13:21:41.138Z,25.80
2019-05-26T13:24:11.467Z,25.60
2019-05-26T13:26:43.256Z,25.50
2019-05-26T13:29:14.892Z,25.40
2019-05-26T13:31:52.307Z,25.50
2019-05-26T13:34:26.848Z,25.40
2019-05-26T13:36:57.223Z,25.40
2019-05-26T13:39:28.547Z,25.30
2019-05-26T13:42:01.742Z,25.30
2019-05-26T13:44:32.014Z,25.20
2019-05-26T13:47:02.216Z,24.90
2019-05-26T13:49:32.299Z,24.90
2019-05-26T13:52:02.312Z,24.90
2019-05-26T13:54:33.401Z,25.00
2019-05-26T13:57:03.513Z,25.00
2019-05-26T13:59:33.418Z,25.10
2019-05-26T14:02:03.561Z,25.10
2019-05-26T14:04:34.691Z,25.00
2019-05-26T14:07:05.172Z,25.00
2019-05-26T14:09:36.278Z,25.10
2019-05-26T14:12:07.181Z,25.00
2019-05-26T14:14:37.323Z,24.90
2019-05-26T14:17:07.466Z,25.00
2019-05-26T14:19:39.372Z,24.80
2019-05-26T14:22:09.382Z,24.80
2019-05-26T14:24:52.862Z,24.80
2019-05-26T14:27:11.011Z,24.60
2019-05-26T14:29:40.942Z,24.40
2019-05-26T14:32:10.929Z,24.20
2019-05-26T14:34:40.946Z,24.20
2019-05-26T14:37:10.998Z,24.00
2019-05-26T14:39:40.942Z,24.10
2019-05-26T14:42:10.919Z,24.10
2019-05-26T14:44:40.974Z,24.00
2019-05-26T14:47:11.167Z,24.20
2019-05-26T14:49:41.217Z,24.10
2019-05-26T14:52:11.189Z,23.90
2019-05-26T14:54:41.389Z,23.70
2019-05-26T14:57:11.442Z,23.70
2019-05-26T14:59:41.413Z,23.70
2019-05-26T15:02:11.546Z,23.70
2019-05-26T15:04:41.628Z,23.80
2019-05-26T15:07:11.748Z,23.70
2019-05-26T15:09:41.779Z,23.80
2019-05-26T15:12:11.904Z,23.70
2019-05-26T15:14:41.951Z,23.70
2019-05-26T15:17:11.999Z,23.70
2019-05-26T15:19:42.034Z,23.60
2019-05-26T15:22:12.222Z,23.70
2019-05-26T15:24:42.210Z,23.60
2019-05-26T15:27:12.284Z,23.40
2019-05-26T15:29:42.390Z,23.20
2019-05-26T15:32:12.449Z,23.20
2019-05-26T15:34:42.520Z,23.10
2019-05-26T15:37:12.501Z,23.10
2019-05-26T15:39:43.694Z,23.00
2019-05-26T15:42:13.690Z,23.00
2019-05-26T15:44:43.574Z,23.00
2019-05-26T15:47:13.727Z,23.00
2019-05-26T15:49:43.787Z,23.10
2019-05-26T15:52:13.925Z,23.10
2019-05-26T15:54:43.959Z,23.10
2019-05-26T15:57:14.161Z,23.10
2019-05-26T15:59:44.199Z,23.20
2019-05-26T16:02:14.293Z,23.20
2019-05-26T16:04:47.094Z,23.30
2019-05-26T16:07:17.076Z,23.30
2019-05-26T16:09:47.083Z,23.30
2019-05-26T16:12:17.243Z,23.40
2019-05-26T16:14:47.338Z,23.50
2019-05-26T16:17:17.524Z,23.50
2019-05-26T16:19:47.561Z,23.50
2019-05-26T16:22:17.767Z,23.40
2019-05-26T16:24:47.816Z,23.20
2019-05-26T16:27:19.855Z,23.10
2019-05-26T16:29:50.066Z,23.00
2019-05-26T16:32:20.202Z,23.00
2019-05-26T16:34:50.111Z,23.00
2019-05-26T16:37:20.182Z,23.00
2019-05-26T16:39:50.094Z,22.90
2019-05-26T16:42:20.052Z,22.80
2019-05-26T16:44:50.064Z,22.80
2019-05-26T16:47:20.138Z,22.80
2019-05-26T16:49:50.233Z,22.70
2019-05-26T16:52:20.297Z,22.80
2019-05-26T16:54:50.264Z,22.80
2019-05-26T16:57:21.520Z,22.70
2019-05-26T16:59:51.679Z,22.60
2019-05-26T17:02:21.731Z,22.50
2019-05-26T17:04:51.962Z,22.40
2019-05-26T17:07:22.073Z,22.50
2019-05-26T17:09:52.305Z,22.40
2019-05-26T17:12:22.477Z,22.30
2019-05-26T17:14:52.520Z,22.20
2019-05-26T17:17:22.614Z,22.10
2019-05-26T17:19:52.993Z,22.10
2019-05-26T17:22:23.163Z,22.10
2019-05-26T17:24:53.619Z,21.90
2019-05-26T17:27:24.694Z,21.90
2019-05-26T17:29:54.750Z,21.90
2019-05-26T17:32:24.840Z,21.90
2019-05-26T17:34:54.852Z,21.90
2019-05-26T17:37:24.739Z,21.90
2019-05-26T17:39:54.750Z,22.00
2019-05-26T17:42:24.891Z,21.90
2019-05-26T17:44:54.876Z,21.90
2019-05-26T17:47:30.236Z,21.80
2019-05-26T17:49:56.653Z,21.70
2019-05-26T17:52:26.605Z,21.60
2019-05-26T17:54:56.504Z,21.60
2019-05-26T17:57:26.511Z,21.50
2019-05-26T17:59:56.547Z,21.40
2019-05-26T18:02:26.700Z,21.30
2019-05-26T18:04:56.849Z,21.20
2019-05-26T18:07:26.837Z,21.00
2019-05-26T18:09:56.893Z,21.00
2019-05-26T18:12:27.165Z,20.80
2019-05-26T18:14:57.152Z,20.70
2019-05-26T18:17:27.223Z,20.70
2019-05-26T18:19:57.241Z,20.70
2019-05-26T18:22:27.234Z,20.60
2019-05-26T18:24:58.967Z,20.60
2019-05-26T18:27:29.339Z,20.60
2019-05-26T18:29:59.413Z,20.60
2019-05-26T18:32:29.394Z,20.60
2019-05-26T18:34:59.427Z,20.50
2019-05-26T18:37:29.513Z,20.50
2019-05-26T18:39:59.421Z,20.50
2019-05-26T18:42:29.431Z,20.40
2019-05-26T18:44:59.797Z,20.30
2019-05-26T18:47:29.726Z,20.40
2019-05-26T18:49:59.815Z,20.40
2019-05-26T18:52:29.826Z,20.30
2019-05-26T18:55:00.643Z,20.30
2019-05-26T18:57:30.844Z,20.20
2019-05-26T19:00:00.869Z,20.20
2019-05-26T19:02:30.888Z,20.20
2019-05-26T19:05:00.998Z,20.10
2019-05-26T19:07:31.198Z,20.10
2019-05-26T19:10:02.196Z,20.10
2019-05-26T19:12:32.259Z,20.00
2019-05-26T19:15:02.329Z,20.00
2019-05-26T19:17:32.635Z,19.90
2019-05-26T19:20:15.407Z,19.90
2019-05-26T19:22:35.478Z,19.80
2019-05-26T19:25:06.788Z,19.60
2019-05-26T19:27:36.852Z,19.60
2019-05-26T19:30:08.412Z,19.50
2019-05-26T19:32:38.405Z,19.50
2019-05-26T19:35:08.954Z,19.50
2019-05-26T19:37:39.425Z,19.50
2019-05-26T19:40:10.318Z,19.40
2019-05-26T19:42:40.613Z,19.40
2019-05-26T19:45:10.850Z,19.40
2019-05-26T19:47:40.871Z,19.40
2019-05-26T19:50:12.709Z,19.40
2019-05-26T19:52:42.706Z,19.40
2019-05-26T19:55:13.015Z,19.40
2019-05-26T19:57:43.092Z,19.40
2019-05-26T20:00:15.995Z,19.40
2019-05-26T20:02:46.205Z,19.40
2019-05-26T20:05:16.505Z,19.40
2019-05-26T20:07:46.664Z,19.40
2019-05-26T20:10:16.706Z,19.40
2019-05-26T20:12:46.794Z,19.30
2019-05-26T20:15:18.656Z,19.20
2019-05-26T20:17:49.006Z,19.20
2019-05-26T20:20:21.012Z,19.20
2019-05-26T20:22:51.074Z,19.20
2019-05-26T20:25:21.283Z,19.20
2019-05-26T20:27:52.371Z,19.10
2019-05-26T20:30:23.317Z,19.10
2019-05-26T20:32:53.594Z,19.10
2019-05-26T20:35:23.532Z,19.10
2019-05-26T20:37:53.648Z,19.10
2019-05-26T20:40:23.637Z,19.10
2019-05-26T20:42:53.642Z,19.10
2019-05-26T20:45:23.904Z,19.10
2019-05-26T20:47:53.901Z,19.10
2019-05-26T20:50:29.138Z,19.20
2019-05-26T20:52:55.704Z,19.20
2019-05-26T20:55:25.778Z,19.20
2019-05-26T20:57:55.766Z,19.20
2019-05-26T21:00:25.841Z,19.20
2019-05-26T21:02:56.004Z,19.20
2019-05-26T21:05:26.084Z,19.10
2019-05-26T21:07:56.193Z,19.10
2019-05-26T21:10:26.289Z,19.10
2019-05-26T21:12:56.257Z,19.10
2019-05-26T21:15:26.265Z,19.20
2019-05-26T21:17:57.414Z,19.20
2019-05-26T21:20:27.491Z,19.20
2019-05-26T21:22:57.555Z,19.20
2019-05-26T21:25:27.489Z,19.20
2019-05-26T21:27:57.533Z,19.20
2019-05-26T21:30:27.549Z,19.20
2019-05-26T21:32:57.991Z,19.10
2019-05-26T21:35:28.043Z,19.20
2019-05-26T21:37:58.076Z,19.20
2019-05-26T21:40:28.184Z,19.20
2019-05-26T21:42:58.153Z,19.20
2019-05-26T21:45:28.306Z,19.20
2019-05-26T21:47:58.219Z,19.10
2019-05-26T21:50:28.220Z,19.10
2019-05-26T21:52:58.208Z,19.10
2019-05-26T21:55:28.214Z,19.00
2019-05-26T21:57:58.275Z,19.00
2019-05-26T22:00:30.640Z,19.00
2019-05-26T22:03:02.177Z,18.90
2019-05-26T22:05:33.359Z,18.90
2019-05-26T22:08:03.499Z,18.90
2019-05-26T22:10:33.505Z,18.90
2019-05-26T22:13:03.646Z,18.90
2019-05-26T22:15:33.816Z,18.80
2019-05-26T22:18:03.859Z,18.80
2019-05-26T22:20:33.997Z,18.70
2019-05-26T22:23:04.072Z,18.70
2019-05-26T22:25:34.027Z,18.70
2019-05-26T22:28:04.136Z,18.70
2019-05-26T22:30:34.172Z,18.70
2019-05-26T22:33:04.346Z,18.70
2019-05-26T22:35:34.396Z,18.70
2019-05-26T22:38:05.873Z,18.70
2019-05-26T22:40:35.956Z,18.70
2019-05-26T22:43:06.178Z,18.70
2019-05-26T22:45:36.307Z,18.70
2019-05-26T22:48:06.670Z,18.70
2019-05-26T22:50:36.717Z,18.70
2019-05-26T22:53:06.761Z,18.70
2019-05-26T22:55:36.850Z,18.70
2019-05-26T22:58:06.826Z,18.60
2019-05-26T23:00:36.836Z,18.60
2019-05-26T23:03:06.829Z,18.60
2019-05-26T23:05:36.856Z,18.50
2019-05-26T23:08:08.101Z,18.50
2019-05-26T23:10:38.084Z,18.50
2019-05-26T23:13:08.181Z,18.50
2019-05-26T23:15:38.127Z,18.50
2019-05-26T23:18:08.200Z,18.50
2019-05-26T23:20:38.316Z,18.50
2019-05-26T23:23:08.551Z,18.50
2019-05-26T23:25:38.609Z,18.50
2019-05-26T23:28:08.542Z,18.40
2019-05-26T23:30:38.596Z,18.40
2019-05-26T23:33:08.736Z,18.30
2019-05-26T23:35:38.819Z,18.30
2019-05-26T23:38:08.901Z,18.30
2019-05-26T23:40:39.074Z,18.20
2019-05-26T23:43:09.138Z,18.10
2019-05-26T23:45:39.133Z,18.00
2019-05-26T23:48:09.125Z,18.00
2019-05-26T23:50:39.172Z,17.90
2019-05-26T23:53:09.195Z,17.90
2019-05-26T23:55:40.247Z,17.90
2019-05-26T23:58:10.258Z,18.00
